N8033F KRFD-KGYY
Flight info
| Callsign | N8033F |
|---|---|
| Flight time | 0h 58m |
| Altitude | 5500 |
| Route | VFR |
| Aircraft | C172/L-VGD/C |
Departure
| Time | 2026-04-21 01:52 |
|---|---|
| Airport | Chicago Rockford International Airport (KRFD) |
Arrival
| Time | 2026-04-21 02:50 |
|---|---|
| Airport | Gary/Chicago International Airport (KGYY) |
| Time | Latitude | Longitude | Altitude | Speed | Heading |
|---|---|---|---|---|---|
| 2026-04-21 01:25 | 42.21003 | -89.08423 | 746 ft | 0 kts | 229° |
| 2026-04-21 01:43 | 42.21001 | -89.08427 | 745 ft | 1 kts | 243° |
| 2026-04-21 01:43 | 42.21000 | -89.08445 | 746 ft | 3 kts | 275° |
| 2026-04-21 01:44 | 42.21002 | -89.08499 | 746 ft | 7 kts | 269° |
| 2026-04-21 01:44 | 42.21002 | -89.08552 | 745 ft | 2 kts | 268° |
| 2026-04-21 01:44 | 42.20982 | -89.08579 | 745 ft | 5 kts | 187° |
| 2026-04-21 01:44 | 42.20931 | -89.08586 | 746 ft | 8 kts | 186° |
| 2026-04-21 01:45 | 42.20881 | -89.08593 | 746 ft | 6 kts | 184° |
| 2026-04-21 01:45 | 42.20844 | -89.08598 | 746 ft | 5 kts | 184° |
| 2026-04-21 01:45 | 42.20805 | -89.08596 | 746 ft | 5 kts | 171° |
| 2026-04-21 01:45 | 42.20766 | -89.08579 | 746 ft | 5 kts | 161° |
| 2026-04-21 01:46 | 42.20723 | -89.08573 | 746 ft | 7 kts | 191° |
| 2026-04-21 01:46 | 42.20666 | -89.08593 | 746 ft | 9 kts | 193° |
| 2026-04-21 01:46 | 42.20602 | -89.08614 | 746 ft | 7 kts | 196° |
| 2026-04-21 01:46 | 42.20567 | -89.08656 | 746 ft | 6 kts | 247° |
| 2026-04-21 01:47 | 42.20565 | -89.08695 | 746 ft | 0 kts | 279° |
| 2026-04-21 01:49 | 42.20565 | -89.08696 | 746 ft | 1 kts | 279° |
| 2026-04-21 01:50 | 42.20562 | -89.08704 | 746 ft | 0 kts | 195° |
| 2026-04-21 01:50 | 42.20554 | -89.08684 | 746 ft | 6 kts | 52° |
| 2026-04-21 01:50 | 42.20570 | -89.08692 | 746 ft | 0 kts | 275° |
| 2026-04-21 01:51 | 42.20571 | -89.08754 | 746 ft | 10 kts | 278° |
| 2026-04-21 01:51 | 42.20537 | -89.08861 | 746 ft | 17 kts | 188° |
| 2026-04-21 01:52 | 42.20340 | -89.08889 | 746 ft | 50 kts | 185° |
| 2026-04-21 01:52 | 42.19344 | -89.09074 | 1052 ft | 75 kts | 191° |
| 2026-04-21 01:52 | 42.18888 | -89.09224 | 1387 ft | 60 kts | 195° |
| 2026-04-21 01:53 | 42.18527 | -89.09381 | 1672 ft | 53 kts | 198° |
| 2026-04-21 01:53 | 42.18177 | -89.09582 | 1867 ft | 57 kts | 198° |
| 2026-04-21 01:53 | 42.17776 | -89.09437 | 1974 ft | 77 kts | 140° |
| 2026-04-21 01:53 | 42.17558 | -89.08673 | 2042 ft | 94 kts | 122° |
| 2026-04-21 01:54 | 42.17321 | -89.07795 | 2059 ft | 102 kts | 122° |
| 2026-04-21 01:54 | 42.17056 | -89.06879 | 2047 ft | 106 kts | 124° |
| 2026-04-21 01:54 | 42.16727 | -89.05997 | 2013 ft | 105 kts | 128° |
| 2026-04-21 01:54 | 42.16384 | -89.05131 | 2050 ft | 99 kts | 128° |
| 2026-04-21 01:55 | 42.16100 | -89.04338 | 2182 ft | 94 kts | 124° |
| 2026-04-21 01:55 | 42.15832 | -89.03522 | 2240 ft | 94 kts | 129° |
| 2026-04-21 01:55 | 42.15516 | -89.02761 | 2319 ft | 92 kts | 132° |
| 2026-04-21 01:55 | 42.15206 | -89.01990 | 2355 ft | 97 kts | 125° |
| 2026-04-21 01:56 | 42.14997 | -89.01092 | 2427 ft | 100 kts | 114° |
| 2026-04-21 01:56 | 42.14842 | -89.00242 | 2599 ft | 89 kts | 120° |
| 2026-04-21 01:56 | 42.14664 | -88.99468 | 2740 ft | 86 kts | 123° |
| 2026-04-21 01:56 | 42.14452 | -88.98704 | 2861 ft | 86 kts | 127° |
| 2026-04-21 01:57 | 42.14207 | -88.97978 | 3013 ft | 82 kts | 130° |
| 2026-04-21 01:57 | 42.13953 | -88.97285 | 3143 ft | 83 kts | 132° |
| 2026-04-21 01:57 | 42.13670 | -88.96607 | 3278 ft | 81 kts | 138° |
| 2026-04-21 01:57 | 42.13350 | -88.96001 | 3430 ft | 79 kts | 139° |
| 2026-04-21 01:58 | 42.13013 | -88.95416 | 3547 ft | 81 kts | 142° |
| 2026-04-21 01:58 | 42.12654 | -88.94818 | 3686 ft | 81 kts | 143° |
| 2026-04-21 01:58 | 42.12294 | -88.94247 | 3825 ft | 81 kts | 145° |
| 2026-04-21 01:58 | 42.11922 | -88.93668 | 3951 ft | 82 kts | 143° |
| 2026-04-21 01:59 | 42.11573 | -88.93044 | 4110 ft | 82 kts | 141° |
| 2026-04-21 01:59 | 42.11252 | -88.92443 | 4282 ft | 79 kts | 141° |
| 2026-04-21 01:59 | 42.10905 | -88.91866 | 4418 ft | 80 kts | 145° |
| 2026-04-21 01:59 | 42.10619 | -88.91193 | 4564 ft | 87 kts | 124° |
| 2026-04-21 02:00 | 42.10388 | -88.90420 | 4687 ft | 90 kts | 124° |
| 2026-04-21 02:00 | 42.10160 | -88.89608 | 4801 ft | 95 kts | 117° |
| 2026-04-21 02:00 | 42.09967 | -88.88738 | 4915 ft | 98 kts | 117° |
| 2026-04-21 02:00 | 42.09765 | -88.87846 | 5005 ft | 102 kts | 118° |
| 2026-04-21 02:01 | 42.09526 | -88.86983 | 5175 ft | 95 kts | 120° |
| 2026-04-21 02:01 | 42.09302 | -88.86148 | 5296 ft | 97 kts | 121° |
| 2026-04-21 02:01 | 42.09078 | -88.85304 | 5447 ft | 95 kts | 120° |
| 2026-04-21 02:01 | 42.08840 | -88.84441 | 5495 ft | 105 kts | 121° |
| 2026-04-21 02:02 | 42.08576 | -88.83468 | 5506 ft | 115 kts | 117° |
| 2026-04-21 02:02 | 42.08337 | -88.82413 | 5527 ft | 120 kts | 113° |
| 2026-04-21 02:02 | 42.08112 | -88.81316 | 5550 ft | 122 kts | 111° |
| 2026-04-21 02:02 | 42.07894 | -88.80188 | 5570 ft | 124 kts | 110° |
| 2026-04-21 02:03 | 42.07696 | -88.79079 | 5634 ft | 122 kts | 110° |
| 2026-04-21 02:03 | 42.07496 | -88.77969 | 5678 ft | 122 kts | 108° |
| 2026-04-21 02:03 | 42.07314 | -88.76839 | 5681 ft | 125 kts | 115° |
| 2026-04-21 02:03 | 42.06972 | -88.75762 | 5690 ft | 123 kts | 124° |
| 2026-04-21 02:04 | 42.06555 | -88.74756 | 5697 ft | 122 kts | 130° |
| 2026-04-21 02:04 | 42.06083 | -88.73806 | 5672 ft | 123 kts | 136° |
| 2026-04-21 02:04 | 42.05569 | -88.72895 | 5704 ft | 120 kts | 137° |
| 2026-04-21 02:04 | 42.05045 | -88.72004 | 5674 ft | 122 kts | 140° |
| 2026-04-21 02:05 | 42.04489 | -88.71156 | 5748 ft | 116 kts | 140° |
| 2026-04-21 02:05 | 42.03980 | -88.70313 | 5767 ft | 118 kts | 140° |
| 2026-04-21 02:05 | 42.03463 | -88.69411 | 5726 ft | 125 kts | 130° |
| 2026-04-21 02:05 | 42.03296 | -88.68240 | 5692 ft | 136 kts | 82° |
| 2026-04-21 02:06 | 42.03601 | -88.67057 | 5687 ft | 133 kts | 39° |
| 2026-04-21 02:06 | 42.04412 | -88.66675 | 5615 ft | 128 kts | 3° |
| 2026-04-21 02:06 | 42.05149 | -88.65958 | 5622 ft | 136 kts | 54° |
| 2026-04-21 02:06 | 42.05430 | -88.64784 | 5704 ft | 129 kts | 79° |
| 2026-04-21 02:07 | 42.05565 | -88.63580 | 5736 ft | 127 kts | 85° |
| 2026-04-21 02:07 | 42.05653 | -88.62526 | 5734 ft | 98 kts | 88° |
| 2026-04-21 02:07 | 42.05703 | -88.61767 | 5710 ft | 76 kts | 92° |
| 2026-04-21 02:07 | 42.05792 | -88.61160 | 5546 ft | 69 kts | 33° |
| 2026-04-21 02:08 | 42.06255 | -88.60928 | 5406 ft | 83 kts | 32° |
| 2026-04-21 02:08 | 42.06557 | -88.60190 | 5477 ft | 93 kts | 75° |
| 2026-04-21 02:08 | 42.06654 | -88.59234 | 5458 ft | 115 kts | 97° |
| 2026-04-21 02:08 | 42.06430 | -88.58194 | 5504 ft | 117 kts | 127° |
| 2026-04-21 02:09 | 42.05981 | -88.57310 | 5533 ft | 103 kts | 140° |
| 2026-04-21 02:09 | 42.05588 | -88.56649 | 5496 ft | 76 kts | 146° |
| 2026-04-21 02:09 | 42.05415 | -88.56119 | 5281 ft | 89 kts | 33° |
| 2026-04-21 02:09 | 42.05590 | -88.56597 | 4576 ft | 84 kts | 266° |
| 2026-04-21 02:10 | 42.06069 | -88.56959 | 4446 ft | 132 kts | 47° |
| 2026-04-21 02:10 | 42.05877 | -88.55984 | 4440 ft | 114 kts | 143° |
| 2026-04-21 02:10 | 42.05382 | -88.55349 | 4907 ft | 68 kts | 151° |
| 2026-04-21 02:10 | 42.05048 | -88.54928 | 5092 ft | 73 kts | 153° |
| 2026-04-21 02:11 | 42.04647 | -88.54449 | 5260 ft | 83 kts | 151° |
| 2026-04-21 02:11 | 42.04245 | -88.53809 | 5393 ft | 98 kts | 142° |
| 2026-04-21 02:11 | 42.03740 | -88.53108 | 5489 ft | 108 kts | 146° |
| 2026-04-21 02:11 | 42.03226 | -88.52303 | 5575 ft | 120 kts | 130° |
| 2026-04-21 02:12 | 42.02788 | -88.51292 | 5558 ft | 130 kts | 128° |
| 2026-04-21 02:12 | 42.02326 | -88.50243 | 5597 ft | 131 kts | 129° |
| 2026-04-21 02:12 | 42.01833 | -88.49197 | 5614 ft | 132 kts | 130° |
| 2026-04-21 02:12 | 42.01344 | -88.48163 | 5584 ft | 133 kts | 131° |
| 2026-04-21 02:13 | 42.00825 | -88.47129 | 5567 ft | 131 kts | 133° |
| 2026-04-21 02:13 | 42.00299 | -88.46156 | 5590 ft | 127 kts | 137° |
| 2026-04-21 02:13 | 41.99758 | -88.45241 | 5641 ft | 124 kts | 138° |
| 2026-04-21 02:13 | 41.99207 | -88.44338 | 5659 ft | 125 kts | 140° |
| 2026-04-21 02:14 | 41.98629 | -88.43441 | 5640 ft | 128 kts | 137° |
| 2026-04-21 02:14 | 41.98135 | -88.42457 | 5673 ft | 128 kts | 131° |
| 2026-04-21 02:14 | 41.97660 | -88.41435 | 5703 ft | 128 kts | 129° |
| 2026-04-21 02:14 | 41.97184 | -88.40422 | 5727 ft | 128 kts | 131° |
| 2026-04-21 02:15 | 41.96679 | -88.39444 | 5747 ft | 127 kts | 133° |
| 2026-04-21 02:15 | 41.96151 | -88.38515 | 5810 ft | 123 kts | 135° |
| 2026-04-21 02:15 | 41.95630 | -88.37611 | 5891 ft | 120 kts | 137° |
| 2026-04-21 02:15 | 41.95094 | -88.36754 | 5922 ft | 121 kts | 141° |
| 2026-04-21 02:16 | 41.94536 | -88.35870 | 5899 ft | 126 kts | 137° |
| 2026-04-21 02:16 | 41.93930 | -88.35061 | 5936 ft | 120 kts | 150° |
| 2026-04-21 02:16 | 41.93317 | -88.34258 | 5975 ft | 123 kts | 137° |
| 2026-04-21 02:16 | 41.92884 | -88.33214 | 5862 ft | 138 kts | 121° |
| 2026-04-21 02:17 | 41.92486 | -88.32036 | 5843 ft | 136 kts | 121° |
| 2026-04-21 02:17 | 41.92085 | -88.30890 | 5792 ft | 137 kts | 123° |
| 2026-04-21 02:17 | 41.91662 | -88.29745 | 5755 ft | 136 kts | 124° |
| 2026-04-21 02:17 | 41.91211 | -88.28626 | 5716 ft | 136 kts | 127° |
| 2026-04-21 02:18 | 41.90787 | -88.27508 | 5739 ft | 132 kts | 124° |
| 2026-04-21 02:18 | 41.90340 | -88.26414 | 5677 ft | 135 kts | 128° |
| 2026-04-21 02:18 | 41.89896 | -88.25308 | 5684 ft | 133 kts | 122° |
| 2026-04-21 02:18 | 41.89537 | -88.24145 | 5647 ft | 137 kts | 116° |
| 2026-04-21 02:19 | 41.89285 | -88.22929 | 5685 ft | 133 kts | 110° |
| 2026-04-21 02:19 | 41.89044 | -88.21703 | 5622 ft | 138 kts | 112° |
| 2026-04-21 02:19 | 41.88834 | -88.20461 | 5614 ft | 137 kts | 106° |
| 2026-04-21 02:19 | 41.88686 | -88.19200 | 5626 ft | 135 kts | 103° |
| 2026-04-21 02:20 | 41.88559 | -88.17948 | 5634 ft | 134 kts | 103° |
| 2026-04-21 02:20 | 41.88424 | -88.16703 | 5624 ft | 136 kts | 102° |
| 2026-04-21 02:20 | 41.88294 | -88.15432 | 5597 ft | 137 kts | 103° |
| 2026-04-21 02:20 | 41.88150 | -88.14191 | 5650 ft | 132 kts | 105° |
| 2026-04-21 02:21 | 41.87968 | -88.13007 | 5675 ft | 131 kts | 106° |
| 2026-04-21 02:21 | 41.87780 | -88.11803 | 5717 ft | 130 kts | 107° |
| 2026-04-21 02:21 | 41.87596 | -88.10610 | 5711 ft | 133 kts | 106° |
| 2026-04-21 02:21 | 41.87474 | -88.09390 | 5746 ft | 133 kts | 97° |
| 2026-04-21 02:22 | 41.87401 | -88.08137 | 5714 ft | 137 kts | 98° |
| 2026-04-21 02:22 | 41.87318 | -88.06834 | 5665 ft | 140 kts | 99° |
| 2026-04-21 02:22 | 41.87231 | -88.05541 | 5636 ft | 140 kts | 98° |
| 2026-04-21 02:22 | 41.87181 | -88.04250 | 5619 ft | 139 kts | 96° |
| 2026-04-21 02:23 | 41.87128 | -88.02952 | 5593 ft | 139 kts | 97° |
| 2026-04-21 02:23 | 41.87046 | -88.01657 | 5548 ft | 139 kts | 101° |
| 2026-04-21 02:23 | 41.86929 | -88.00379 | 5529 ft | 138 kts | 102° |
| 2026-04-21 02:23 | 41.86812 | -87.99091 | 5502 ft | 137 kts | 100° |
| 2026-04-21 02:24 | 41.86710 | -87.97824 | 5469 ft | 138 kts | 99° |
| 2026-04-21 02:24 | 41.86613 | -87.96547 | 5416 ft | 138 kts | 99° |
| 2026-04-21 02:24 | 41.86540 | -87.95268 | 5417 ft | 135 kts | 96° |
| 2026-04-21 02:24 | 41.86506 | -87.94023 | 5432 ft | 134 kts | 97° |
| 2026-04-21 02:25 | 41.86464 | -87.92780 | 5442 ft | 133 kts | 95° |
| 2026-04-21 02:25 | 41.86438 | -87.91519 | 5407 ft | 136 kts | 94° |
| 2026-04-21 02:25 | 41.86444 | -87.90235 | 5348 ft | 139 kts | 94° |
| 2026-04-21 02:25 | 41.86453 | -87.88941 | 5306 ft | 139 kts | 92° |
| 2026-04-21 02:26 | 41.86499 | -87.87632 | 5238 ft | 142 kts | 87° |
| 2026-04-21 02:26 | 41.86695 | -87.86328 | 5199 ft | 141 kts | 77° |
| 2026-04-21 02:26 | 41.86936 | -87.85068 | 5171 ft | 140 kts | 76° |
| 2026-04-21 02:26 | 41.87199 | -87.83830 | 5163 ft | 137 kts | 76° |
| 2026-04-21 02:27 | 41.87432 | -87.82583 | 5110 ft | 137 kts | 78° |
| 2026-04-21 02:27 | 41.87677 | -87.81330 | 5064 ft | 138 kts | 76° |
| 2026-04-21 02:27 | 41.87949 | -87.80090 | 4976 ft | 140 kts | 75° |
| 2026-04-21 02:27 | 41.88238 | -87.78832 | 4864 ft | 143 kts | 75° |
| 2026-04-21 02:28 | 41.88471 | -87.77538 | 4778 ft | 141 kts | 83° |
| 2026-04-21 02:28 | 41.88607 | -87.76251 | 4696 ft | 140 kts | 87° |
| 2026-04-21 02:28 | 41.88678 | -87.74957 | 4629 ft | 138 kts | 86° |
| 2026-04-21 02:28 | 41.89015 | -87.73766 | 4574 ft | 139 kts | 62° |
| 2026-04-21 02:29 | 41.89457 | -87.72591 | 4462 ft | 141 kts | 68° |
| 2026-04-21 02:29 | 41.89837 | -87.71364 | 4340 ft | 143 kts | 71° |
| 2026-04-21 02:29 | 41.90202 | -87.70106 | 4134 ft | 148 kts | 71° |
| 2026-04-21 02:29 | 41.90622 | -87.68849 | 3915 ft | 146 kts | 66° |
| 2026-04-21 02:30 | 41.91124 | -87.67664 | 3629 ft | 147 kts | 61° |
| 2026-04-21 02:30 | 41.91765 | -87.66635 | 3454 ft | 141 kts | 45° |
| 2026-04-21 02:30 | 41.92399 | -87.65765 | 3232 ft | 121 kts | 65° |
| 2026-04-21 02:30 | 41.92523 | -87.64761 | 3010 ft | 103 kts | 107° |
| 2026-04-21 02:31 | 41.92345 | -87.63883 | 2765 ft | 95 kts | 127° |
| 2026-04-21 02:31 | 41.92006 | -87.63215 | 2652 ft | 80 kts | 146° |
| 2026-04-21 02:31 | 41.91605 | -87.62779 | 2536 ft | 69 kts | 164° |
| 2026-04-21 02:31 | 41.91168 | -87.62558 | 2401 ft | 66 kts | 174° |
| 2026-04-21 02:32 | 41.90698 | -87.62431 | 2283 ft | 72 kts | 178° |
| 2026-04-21 02:32 | 41.90190 | -87.62354 | 2156 ft | 74 kts | 181° |
| 2026-04-21 02:32 | 41.89682 | -87.62334 | 2085 ft | 71 kts | 197° |
| 2026-04-21 02:32 | 41.89307 | -87.62833 | 2148 ft | 78 kts | 223° |
| 2026-04-21 02:33 | 41.88884 | -87.63286 | 2243 ft | 80 kts | 206° |
| 2026-04-21 02:33 | 41.88348 | -87.63532 | 2242 ft | 83 kts | 193° |
| 2026-04-21 02:33 | 41.87764 | -87.63619 | 2203 ft | 82 kts | 188° |
| 2026-04-21 02:33 | 41.87325 | -87.63315 | 2069 ft | 79 kts | 133° |
| 2026-04-21 02:34 | 41.87191 | -87.62579 | 1853 ft | 74 kts | 128° |
| 2026-04-21 02:34 | 41.86927 | -87.62112 | 1664 ft | 54 kts | 165° |
| 2026-04-21 02:34 | 41.86616 | -87.61910 | 1510 ft | 52 kts | 168° |
| 2026-04-21 02:34 | 41.86278 | -87.61731 | 1334 ft | 55 kts | 172° |
| 2026-04-21 02:35 | 41.85924 | -87.61620 | 1192 ft | 51 kts | 173° |
| 2026-04-21 02:35 | 41.85572 | -87.61498 | 1019 ft | 55 kts | 150° |
| 2026-04-21 02:35 | 41.85519 | -87.60967 | 868 ft | 75 kts | 58° |
| 2026-04-21 02:35 | 41.86030 | -87.60812 | 711 ft | 80 kts | 356° |
| 2026-04-21 02:36 | 41.86612 | -87.60941 | 863 ft | 85 kts | 322° |
| 2026-04-21 02:36 | 41.86690 | -87.61530 | 1020 ft | 68 kts | 211° |
| 2026-04-21 02:36 | 41.86270 | -87.61347 | 1200 ft | 70 kts | 153° |
| 2026-04-21 02:36 | 41.85834 | -87.61166 | 1411 ft | 66 kts | 174° |
| 2026-04-21 02:37 | 41.85382 | -87.61028 | 1574 ft | 69 kts | 174° |
| 2026-04-21 02:37 | 41.84898 | -87.60892 | 1683 ft | 73 kts | 175° |
| 2026-04-21 02:37 | 41.84399 | -87.60686 | 1821 ft | 74 kts | 166° |
| 2026-04-21 02:37 | 41.83933 | -87.60421 | 1947 ft | 76 kts | 166° |
| 2026-04-21 02:38 | 41.83427 | -87.60147 | 2032 ft | 79 kts | 165° |
| 2026-04-21 02:38 | 41.82917 | -87.59836 | 2083 ft | 85 kts | 163° |
| 2026-04-21 02:38 | 41.82368 | -87.59489 | 2117 ft | 86 kts | 163° |
| 2026-04-21 02:38 | 41.81831 | -87.59136 | 2177 ft | 85 kts | 162° |
| 2026-04-21 02:39 | 41.81294 | -87.58749 | 2179 ft | 89 kts | 162° |
| 2026-04-21 02:39 | 41.80745 | -87.58382 | 2213 ft | 88 kts | 164° |
| 2026-04-21 02:39 | 41.80165 | -87.58048 | 2144 ft | 93 kts | 167° |
| 2026-04-21 02:39 | 41.79578 | -87.57705 | 2180 ft | 90 kts | 163° |
| 2026-04-21 02:40 | 41.79026 | -87.57325 | 2220 ft | 89 kts | 162° |
| 2026-04-21 02:40 | 41.78489 | -87.56917 | 2277 ft | 88 kts | 158° |
| 2026-04-21 02:40 | 41.77999 | -87.56412 | 2349 ft | 87 kts | 156° |
| 2026-04-21 02:40 | 41.77475 | -87.56021 | 2382 ft | 88 kts | 160° |
| 2026-04-21 02:41 | 41.76937 | -87.55607 | 2400 ft | 89 kts | 158° |
| 2026-04-21 02:41 | 41.76387 | -87.55193 | 2400 ft | 90 kts | 161° |
| 2026-04-21 02:41 | 41.75840 | -87.54805 | 2454 ft | 87 kts | 162° |
| 2026-04-21 02:41 | 41.75328 | -87.54356 | 2500 ft | 91 kts | 150° |
| 2026-04-21 02:42 | 41.74846 | -87.53800 | 2578 ft | 89 kts | 150° |
| 2026-04-21 02:42 | 41.74388 | -87.53239 | 2649 ft | 90 kts | 148° |
| 2026-04-21 02:42 | 41.73938 | -87.52643 | 2714 ft | 94 kts | 141° |
| 2026-04-21 02:42 | 41.73523 | -87.51941 | 2744 ft | 97 kts | 140° |
| 2026-04-21 02:43 | 41.73056 | -87.51311 | 2773 ft | 94 kts | 153° |
| 2026-04-21 02:43 | 41.72500 | -87.50862 | 2760 ft | 96 kts | 161° |
| 2026-04-21 02:43 | 41.71889 | -87.50418 | 2731 ft | 101 kts | 158° |
| 2026-04-21 02:43 | 41.71314 | -87.49895 | 2779 ft | 99 kts | 153° |
| 2026-04-21 02:44 | 41.70767 | -87.49340 | 2805 ft | 100 kts | 150° |
| 2026-04-21 02:44 | 41.70192 | -87.48777 | 2756 ft | 104 kts | 153° |
| 2026-04-21 02:44 | 41.69598 | -87.48216 | 2722 ft | 103 kts | 154° |
| 2026-04-21 02:44 | 41.69063 | -87.47669 | 2590 ft | 92 kts | 152° |
| 2026-04-21 02:45 | 41.68590 | -87.47146 | 2464 ft | 85 kts | 152° |
| 2026-04-21 02:45 | 41.68153 | -87.46652 | 2368 ft | 77 kts | 155° |
| 2026-04-21 02:45 | 41.67697 | -87.46201 | 2282 ft | 85 kts | 153° |
| 2026-04-21 02:45 | 41.67230 | -87.45708 | 2239 ft | 86 kts | 154° |
| 2026-04-21 02:46 | 41.66739 | -87.45256 | 2198 ft | 85 kts | 158° |
| 2026-04-21 02:46 | 41.66240 | -87.44846 | 2166 ft | 84 kts | 159° |
| 2026-04-21 02:46 | 41.65716 | -87.44455 | 2082 ft | 87 kts | 160° |
| 2026-04-21 02:46 | 41.65200 | -87.44044 | 1918 ft | 87 kts | 160° |
| 2026-04-21 02:47 | 41.64693 | -87.43666 | 1761 ft | 82 kts | 161° |
| 2026-04-21 02:47 | 41.64183 | -87.43349 | 1611 ft | 83 kts | 165° |
| 2026-04-21 02:47 | 41.63631 | -87.43142 | 1604 ft | 80 kts | 174° |
| 2026-04-21 02:47 | 41.63084 | -87.43057 | 1597 ft | 78 kts | 180° |
| 2026-04-21 02:48 | 41.62551 | -87.42903 | 1621 ft | 77 kts | 167° |
| 2026-04-21 02:48 | 41.62068 | -87.42542 | 1600 ft | 86 kts | 147° |
| 2026-04-21 02:48 | 41.61734 | -87.41844 | 1621 ft | 89 kts | 129° |
| 2026-04-21 02:48 | 41.61460 | -87.41074 | 1613 ft | 92 kts | 127° |
| 2026-04-21 02:49 | 41.61186 | -87.40307 | 1624 ft | 92 kts | 121° |
| 2026-04-21 02:49 | 41.61295 | -87.39401 | 1651 ft | 109 kts | 63° |
| 2026-04-21 02:49 | 41.61988 | -87.38917 | 1609 ft | 118 kts | 11° |
| 2026-04-21 02:49 | 41.62694 | -87.38875 | 1539 ft | 89 kts | 332° |
| 2026-04-21 02:50 | 41.63001 | -87.39410 | 1428 ft | 70 kts | 270° |
| 2026-04-21 02:50 | 41.63142 | -87.39951 | 1353 ft | 58 kts | 271° |
| 2026-04-21 02:50 | 41.63220 | -87.40448 | 1274 ft | 53 kts | 247° |
| 2026-04-21 02:50 | 41.63065 | -87.40850 | 1103 ft | 48 kts | 217° |
| 2026-04-21 02:51 | 41.62783 | -87.41082 | 898 ft | 48 kts | 204° |
| 2026-04-21 02:51 | 41.62473 | -87.41224 | 706 ft | 47 kts | 203° |
| 2026-04-21 02:51 | 41.62185 | -87.41358 | 622 ft | 42 kts | 195° |
| 2026-04-21 02:51 | 41.61976 | -87.41458 | 588 ft | 17 kts | 197° |
| 2026-04-21 02:52 | 41.61880 | -87.41431 | 588 ft | 8 kts | 156° |
| 2026-04-21 02:52 | 41.61871 | -87.41419 | 588 ft | 0 kts | 126° |
| 2026-04-21 02:52 | 41.61825 | -87.41299 | 588 ft | 13 kts | 118° |
| 2026-04-21 02:52 | 41.61799 | -87.41242 | 589 ft | 18 kts | 133° |
| 2026-04-21 02:53 | 41.61733 | -87.41109 | 590 ft | 11 kts | 81° |
| 2026-04-21 02:53 | 41.61779 | -87.41049 | 590 ft | 10 kts | 339° |
| 2026-04-21 02:53 | 41.61850 | -87.41095 | 590 ft | 10 kts | 338° |
| 2026-04-21 02:53 | 41.61891 | -87.41111 | 590 ft | 3 kts | 342° |
| 2026-04-21 02:54 | 41.61927 | -87.41125 | 590 ft | 9 kts | 278° |
| 2026-04-21 02:54 | 41.61909 | -87.41129 | 590 ft | 0 kts | 151° |